createdAt,value
2022-08-14T00:03:07.138Z,17.8
2022-08-14T00:08:14.240Z,17.8
2022-08-14T00:13:07.314Z,17.7
2022-08-14T00:18:07.250Z,17.7
2022-08-14T00:23:12.149Z,17.7
2022-08-14T00:28:07.268Z,17.7
2022-08-14T00:33:16.186Z,17.7
2022-08-14T00:38:07.167Z,17.7
2022-08-14T00:43:07.693Z,17.7
2022-08-14T00:48:07.420Z,17.7
2022-08-14T00:53:10.567Z,17.7
2022-08-14T00:58:07.157Z,17.6
2022-08-14T01:03:07.319Z,17.6
2022-08-14T01:08:07.301Z,17.6
2022-08-14T01:13:07.880Z,17.6
2022-08-14T01:18:07.063Z,17.6
2022-08-14T01:23:07.291Z,17.5
2022-08-14T01:28:07.391Z,17.5
2022-08-14T01:33:07.105Z,17.5
2022-08-14T01:38:07.276Z,17.5
2022-08-14T01:43:07.251Z,17.5
2022-08-14T01:48:07.110Z,17.5
2022-08-14T01:53:08.142Z,17.4
2022-08-14T01:58:19.628Z,17.4
2022-08-14T02:03:07.142Z,17.4
2022-08-14T02:08:08.637Z,17.4
2022-08-14T02:13:07.212Z,17.4
2022-08-14T02:18:07.080Z,17.4
2022-08-14T02:23:08.424Z,17.4
2022-08-14T02:28:24.969Z,17.4
2022-08-14T02:33:06.995Z,17.4
2022-08-14T02:38:07.028Z,17.4
2022-08-14T02:43:07.869Z,17.4
2022-08-14T02:48:10.551Z,17.4
2022-08-14T02:53:07.569Z,17.4
2022-08-14T02:58:07.115Z,17.4
2022-08-14T03:03:07.588Z,17.4
2022-08-14T03:08:07.836Z,17.4
2022-08-14T03:13:06.873Z,17.4
2022-08-14T03:18:07.008Z,17.4
2022-08-14T03:23:06.905Z,17.4
2022-08-14T03:28:07.097Z,17.4
2022-08-14T03:33:06.955Z,17.4
2022-08-14T03:39:15.719Z,17.4
2022-08-14T03:43:07.136Z,17.4
2022-08-14T03:48:11.051Z,17.4
2022-08-14T03:53:06.902Z,17.4
2022-08-14T03:58:07.298Z,17.4
2022-08-14T04:03:07.088Z,17.3
2022-08-14T04:08:22.487Z,17.3
2022-08-14T04:13:06.812Z,17.3
2022-08-14T04:18:06.774Z,17.3
2022-08-14T04:23:06.938Z,17.3
2022-08-14T04:28:06.989Z,17.3
2022-08-14T04:33:15.863Z,17.3
2022-08-14T04:38:36.148Z,17.3
2022-08-14T04:43:07.010Z,17.3
2022-08-14T04:48:06.805Z,17.3
2022-08-14T04:53:06.660Z,17.3
2022-08-14T04:58:07.956Z,17.3
2022-08-14T05:03:07.320Z,17.3
2022-08-14T05:08:06.766Z,17.3
2022-08-14T05:13:13.915Z,17.3
2022-08-14T05:18:17.813Z,17.3
2022-08-14T05:23:06.624Z,17.3
2022-08-14T05:28:11.273Z,17.3
2022-08-14T05:33:06.684Z,17.3
2022-08-14T05:38:10.821Z,17.3
2022-08-14T05:43:07.002Z,17.4
2022-08-14T05:48:06.751Z,17.4
2022-08-14T05:53:06.641Z,17.5
2022-08-14T05:58:06.916Z,17.5
2022-08-14T06:03:07.126Z,17.6
2022-08-14T06:08:08.720Z,17.6
2022-08-14T06:13:06.767Z,17.6
2022-08-14T06:18:06.621Z,17.6
2022-08-14T06:23:06.959Z,17.6
2022-08-14T06:28:07.207Z,17.6
2022-08-14T06:33:06.972Z,17.6
2022-08-14T06:38:06.696Z,17.7
2022-08-14T06:43:06.826Z,17.7
2022-08-14T06:48:12.632Z,17.7
2022-08-14T06:53:06.841Z,17.8
2022-08-14T06:58:06.612Z,17.8
2022-08-14T07:03:06.653Z,17.8
2022-08-14T07:08:06.728Z,17.8
2022-08-14T07:13:06.830Z,17.9
2022-08-14T07:18:08.874Z,18.0
2022-08-14T07:23:09.150Z,18.2
2022-08-14T07:28:06.724Z,18.4
2022-08-14T07:33:06.563Z,18.5
2022-08-14T07:38:06.545Z,18.6
2022-08-14T07:43:14.075Z,18.6
2022-08-14T07:48:06.412Z,18.7
2022-08-14T07:53:06.781Z,18.7
2022-08-14T07:58:07.600Z,18.8
2022-08-14T08:03:06.460Z,18.9
2022-08-14T08:08:08.468Z,18.9
2022-08-14T08:13:06.370Z,18.9
2022-08-14T08:18:06.403Z,18.9
2022-08-14T08:23:06.722Z,19.0
2022-08-14T08:28:08.497Z,18.9
2022-08-14T08:33:06.387Z,18.9
2022-08-14T08:38:14.357Z,19.0
2022-08-14T08:43:06.376Z,19.3
2022-08-14T08:48:18.381Z,19.5
2022-08-14T08:53:06.501Z,19.7
2022-08-14T08:58:12.384Z,19.8
2022-08-14T09:03:06.507Z,19.9
2022-08-14T09:08:08.084Z,20.0
2022-08-14T09:13:06.443Z,20.1
2022-08-14T09:18:06.435Z,20.1
2022-08-14T09:23:06.546Z,19.9
2022-08-14T09:28:06.341Z,19.7
2022-08-14T09:33:12.602Z,19.7
2022-08-14T09:38:25.638Z,19.7
2022-08-14T09:43:06.434Z,19.8
2022-08-14T09:48:06.282Z,19.8
2022-08-14T09:53:17.794Z,19.9
2022-08-14T09:58:06.420Z,20.0
2022-08-14T10:03:06.680Z,20.1
2022-08-14T10:08:06.258Z,20.2
2022-08-14T10:13:17.136Z,20.3
2022-08-14T10:18:06.379Z,20.4
2022-08-14T10:23:21.697Z,20.4
2022-08-14T10:28:06.183Z,20.3
2022-08-14T10:33:07.195Z,20.2
2022-08-14T10:38:07.421Z,20.1
2022-08-14T10:43:06.315Z,20.1
2022-08-14T10:48:07.732Z,20.1
2022-08-14T10:53:08.035Z,20.2
2022-08-14T10:58:06.162Z,20.2
2022-08-14T11:03:06.328Z,20.2
2022-08-14T11:08:09.004Z,20.3
2022-08-14T11:13:06.376Z,20.6
2022-08-14T11:18:06.363Z,20.9
2022-08-14T11:23:06.417Z,21.3
2022-08-14T11:28:06.166Z,21.6
2022-08-14T11:33:06.358Z,21.8
2022-08-14T11:38:06.308Z,21.9
2022-08-14T11:43:06.289Z,21.9
2022-08-14T11:48:12.655Z,22.0
2022-08-14T11:53:06.862Z,22.1
2022-08-14T11:58:06.144Z,22.1
2022-08-14T12:03:08.528Z,22.0
2022-08-14T12:08:06.739Z,22.0
2022-08-14T12:13:06.222Z,22.1
2022-08-14T12:18:06.329Z,22.3
2022-08-14T12:23:07.430Z,22.5
2022-08-14T12:28:06.458Z,22.6
2022-08-14T12:33:06.029Z,22.8
2022-08-14T12:38:06.447Z,22.8
2022-08-14T12:43:06.374Z,23.0
2022-08-14T12:48:21.845Z,23.2
2022-08-14T12:53:14.732Z,23.3
2022-08-14T12:58:35.072Z,23.4
2022-08-14T13:03:06.085Z,23.5
2022-08-14T13:08:10.685Z,23.8
2022-08-14T13:13:15.211Z,24.0
2022-08-14T13:18:06.234Z,24.1
2022-08-14T13:23:06.383Z,24.1
2022-08-14T13:28:11.204Z,24.4
2022-08-14T13:33:06.053Z,24.5
2022-08-14T13:38:06.136Z,24.6
2022-08-14T13:43:06.225Z,24.7
2022-08-14T13:48:06.275Z,24.8
2022-08-14T13:53:07.309Z,25.0
2022-08-14T13:58:06.167Z,25.1
2022-08-14T14:03:06.561Z,25.3
2022-08-14T14:08:06.508Z,25.6
2022-08-14T14:13:06.393Z,25.7
2022-08-14T14:18:06.367Z,25.7
2022-08-14T14:23:11.741Z,25.5
2022-08-14T14:28:06.567Z,25.5
2022-08-14T14:33:11.145Z,25.4
2022-08-14T14:43:07.328Z,25.1
2022-08-14T14:48:12.155Z,25.2
2022-08-14T14:53:13.305Z,25.3
2022-08-14T14:58:07.169Z,25.4
2022-08-14T15:08:06.597Z,25.5
2022-08-14T15:13:07.391Z,25.5
2022-08-14T15:18:08.709Z,25.4
2022-08-14T15:23:12.179Z,25.4
2022-08-14T15:28:06.404Z,25.4
2022-08-14T15:33:06.134Z,25.3
2022-08-14T15:38:07.548Z,25.2
2022-08-14T15:43:05.893Z,25.2
2022-08-14T15:48:05.938Z,25.1
2022-08-14T15:53:06.123Z,25.0
2022-08-14T15:58:08.145Z,25.0
2022-08-14T16:03:08.748Z,25.0
2022-08-14T16:08:05.948Z,25.1
2022-08-14T16:13:06.167Z,25.1
2022-08-14T16:18:06.710Z,25.0
2022-08-14T16:23:11.542Z,24.9
2022-08-14T16:33:06.334Z,24.5
2022-08-14T16:38:19.760Z,24.4
2022-08-14T16:43:12.888Z,24.3
2022-08-14T16:48:06.085Z,24.1
2022-08-14T16:53:07.324Z,24.0
2022-08-14T16:58:05.975Z,23.9
2022-08-14T17:03:11.454Z,23.8
2022-08-14T17:08:31.465Z,23.7
2022-08-14T17:13:05.863Z,23.7
2022-08-14T17:18:06.925Z,23.5
2022-08-14T17:23:10.728Z,23.5
2022-08-14T17:28:49.696Z,23.4
2022-08-14T17:33:06.485Z,23.3
2022-08-14T17:38:06.365Z,23.2
2022-08-14T17:43:06.688Z,23.0
2022-08-14T17:48:06.327Z,22.8
2022-08-14T17:53:09.425Z,22.6
2022-08-14T17:58:20.362Z,22.5
2022-08-14T18:03:06.343Z,22.4
2022-08-14T18:08:33.302Z,22.2
2022-08-14T18:13:07.702Z,22.1
2022-08-14T18:18:05.694Z,21.9
2022-08-14T18:28:10.678Z,21.6
2022-08-14T18:33:06.239Z,21.4
2022-08-14T18:38:05.789Z,21.2
2022-08-14T18:43:06.298Z,21.1
2022-08-14T18:48:15.755Z,21.0
2022-08-14T18:53:06.933Z,20.9
2022-08-14T18:58:25.199Z,20.8
2022-08-14T19:03:05.480Z,20.7
2022-08-14T19:08:07.609Z,20.6
2022-08-14T19:13:13.268Z,20.5
2022-08-14T19:18:14.180Z,20.4
2022-08-14T19:23:05.511Z,20.4
2022-08-14T19:28:05.767Z,20.3
2022-08-14T19:33:08.787Z,20.2
2022-08-14T19:43:09.012Z,20.1
2022-08-14T19:48:05.469Z,20.1
2022-08-14T19:53:11.493Z,20.0
2022-08-14T19:58:05.497Z,19.9
2022-08-14T20:03:11.375Z,19.9
2022-08-14T20:08:06.051Z,19.8
2022-08-14T20:13:05.447Z,19.8
2022-08-14T20:18:05.510Z,19.8
2022-08-14T20:23:11.193Z,19.7
2022-08-14T20:28:29.722Z,19.7
2022-08-14T20:33:07.792Z,19.6
2022-08-14T20:38:30.759Z,19.6
2022-08-14T20:43:05.413Z,19.5
2022-08-14T20:48:08.978Z,19.5
2022-08-14T20:53:05.844Z,19.5
2022-08-14T20:58:38.219Z,19.5
2022-08-14T21:03:05.320Z,19.4
2022-08-14T21:08:10.019Z,19.3
2022-08-14T21:13:29.131Z,19.3
2022-08-14T21:18:05.417Z,19.3
2022-08-14T21:23:05.509Z,19.3
2022-08-14T21:28:05.361Z,19.2
2022-08-14T21:33:05.292Z,19.2
2022-08-14T21:38:05.436Z,19.2
2022-08-14T21:43:05.773Z,19.1
2022-08-14T21:48:09.219Z,19.1
2022-08-14T21:53:05.272Z,19.1
2022-08-14T21:58:53.150Z,19.1
2022-08-14T22:03:05.249Z,19.1
2022-08-14T22:08:05.527Z,19.1
2022-08-14T22:13:05.414Z,19.0
2022-08-14T22:18:05.283Z,19.0
2022-08-14T22:23:05.348Z,19.0
2022-08-14T22:28:05.262Z,19.0
2022-08-14T22:33:05.260Z,19.0
2022-08-14T22:38:35.651Z,19.0
2022-08-14T22:43:07.871Z,19.0
2022-08-14T22:48:05.207Z,19.0
2022-08-14T22:53:05.604Z,18.9
2022-08-14T22:58:05.141Z,18.9
2022-08-14T23:03:05.822Z,18.9
2022-08-14T23:08:58.289Z,18.9
2022-08-14T23:13:05.206Z,18.9
2022-08-14T23:18:05.119Z,18.9
2022-08-14T23:23:05.305Z,18.9
2022-08-14T23:28:05.250Z,18.8
2022-08-14T23:33:05.325Z,18.8
2022-08-14T23:38:05.042Z,18.7
2022-08-14T23:43:05.130Z,18.6
2022-08-14T23:48:05.405Z,18.5
2022-08-14T23:53:07.398Z,18.4
2022-08-14T23:58:05.125Z,18.4
